Time;durP1;ratioP1;P1;durP2;ratioP2;P2;SDS_P1;SDS_P2;PMS_P1;PMS_P2;Temp;Humidity;BMP_temperature;BMP_pressure;BME280_temperature;BME280_humidity;BME280_pressure;Samples;Min_cycle;Max_cycle;Signal;HPM_P1;HPM_P2
2021/12/13 07:14:17;;;;;;;6.55;2.77;;;;;;;16.07;48.71;100405.51;1928022;72;28204;-73
2021/12/13 07:17:15;;;;;;;8.65;3.17;;;;;;;16.50;48.03;100406.45;1892184;75;28622;-75
2021/12/13 07:20:06;;;;;;;6.72;2.80;;;;;;;17.35;46.71;100410.24;1895845;75;28033;-76
2021/12/13 07:22:58;;;;;;;5.83;2.80;;;;;;;18.05;45.30;100397.88;1881124;75;28178;-75
2021/12/13 07:25:50;;;;;;;3.42;2.45;;;;;;;18.62;44.15;100403.16;1886045;75;28141;-76
2021/12/13 07:28:39;;;;;;;2.75;2.52;;;;;;;19.06;43.08;100409.44;1869582;76;28132;-75
2021/12/13 07:31:29;;;;;;;10.08;3.10;;;;;;;19.45;42.18;100411.83;1875842;75;28099;-76
2021/12/13 07:34:21;;;;;;;3.52;2.37;;;;;;;19.72;41.40;100405.63;1902317;75;28641;-76
2021/12/13 07:37:11;;;;;;;5.10;3.02;;;;;;;19.99;40.81;100402.14;1902358;75;28101;-76
2021/12/13 07:40:19;;;;;;;8.20;2.83;;;;;;;20.19;40.31;100395.48;1880649;75;28113;-75
2021/12/13 07:43:12;;;;;;;5.75;2.50;;;;;;;20.35;39.83;100397.13;1880572;75;28018;-75
2021/12/13 07:46:07;;;;;;;3.65;2.60;;;;;;;20.48;39.40;100408.14;1875090;75;28203;-75
2021/12/13 07:49:01;;;;;;;2.70;2.30;;;;;;;20.59;39.08;100402.97;1891666;75;28038;-74
2021/12/13 07:51:51;;;;;;;7.50;3.30;;;;;;;20.65;38.79;100412.27;1887709;75;28116;-66
2021/12/13 07:54:43;;;;;;;11.23;3.47;;;;;;;20.68;38.96;100405.02;1882321;75;28597;-68
2021/12/13 07:57:33;;;;;;;6.92;3.10;;;;;;;20.76;38.79;100404.02;1894963;75;28237;-67
2021/12/13 08:00:34;;;;;;;5.03;2.45;;;;;;;20.82;38.69;100410.06;1891765;75;28126;-68
2021/12/13 08:03:26;;;;;;;6.12;2.67;;;;;;;20.83;38.58;100411.73;1890259;75;28051;-68
2021/12/13 08:06:16;;;;;;;2.70;2.50;;;;;;;20.86;38.62;100416.29;1885734;75;28033;-68
2021/12/13 08:09:08;;;;;;;3.87;2.50;;;;;;;20.86;38.55;100410.83;1891480;75;28175;-68
2021/12/13 08:11:59;;;;;;;4.42;2.62;;;;;;;20.86;38.50;100409.46;1891447;75;28111;-68
2021/12/13 08:14:50;;;;;;;4.12;2.70;;;;;;;20.86;38.54;100415.44;1868395;75;28306;-68
2021/12/13 08:17:45;;;;;;;2.62;2.35;;;;;;;20.84;38.47;100414.25;1891608;75;28121;-68
2021/12/13 08:20:36;;;;;;;3.72;2.60;;;;;;;20.84;38.48;100413.44;1882569;75;28188;-68
2021/12/13 08:23:35;;;;;;;4.87;2.50;;;;;;;20.82;38.54;100406.78;1870338;75;28142;-68
2021/12/13 08:26:32;;;;;;;2.95;2.37;;;;;;;20.80;38.50;100412.98;1872232;75;28047;-68
2021/12/13 08:29:31;;;;;;;2.62;2.40;;;;;;;20.78;38.42;100419.16;1876505;75;28044;-68
2021/12/13 08:32:25;;;;;;;2.55;2.35;;;;;;;20.75;38.39;100414.64;1877584;75;28164;-68
2021/12/13 08:35:12;;;;;;;3.83;2.58;;;;;;;20.73;38.40;100409.36;1863780;75;28164;-68
2021/12/13 08:38:01;;;;;;;2.62;2.22;;;;;;;20.71;38.45;100418.80;1888672;75;28073;-68
2021/12/13 08:40:50;;;;;;;5.60;2.40;;;;;;;20.71;38.47;100422.38;1873381;75;28071;-68
2021/12/13 08:43:51;;;;;;;7.37;2.55;;;;;;;20.70;38.50;100426.68;1881599;75;28060;-68
2021/12/13 08:46:46;;;;;;;3.52;2.70;;;;;;;20.71;38.56;100425.62;1867526;75;28046;-68
2021/12/13 08:49:41;;;;;;;3.65;2.72;;;;;;;20.68;38.52;100423.61;1884082;75;28079;-68
2021/12/13 08:52:33;;;;;;;3.70;2.70;;;;;;;20.68;38.57;100422.77;1878922;75;28175;-68
2021/12/13 08:55:30;;;;;;;2.90;2.27;;;;;;;20.65;38.58;100421.27;1878854;75;28201;-70
2021/12/13 08:58:22;;;;;;;4.53;2.52;;;;;;;20.65;38.60;100424.00;1874612;75;28240;-70
2021/12/13 09:01:13;;;;;;;2.62;2.42;;;;;;;20.64;38.65;100420.12;1875318;75;28163;-70
2021/12/13 09:04:03;;;;;;;4.17;2.60;;;;;;;20.64;38.64;100427.80;1901697;75;28122;-70
2021/12/13 09:06:56;;;;;;;5.45;2.80;;;;;;;20.61;38.65;100429.55;1879082;75;28230;-70
2021/12/13 09:09:47;;;;;;;4.60;2.60;;;;;;;20.60;38.71;100430.61;1879693;75;28085;-71
2021/12/13 09:12:45;;;;;;;4.95;2.85;;;;;;;20.61;38.74;100436.38;1888326;75;28111;-70
2021/12/13 09:15:33;;;;;;;4.73;2.40;;;;;;;20.60;38.70;100436.58;1902424;74;28533;-70
2021/12/13 09:18:22;;;;;;;3.40;2.63;;;;;;;20.59;38.69;100439.83;1895234;74;28047;-69
2021/12/13 09:21:15;;;;;;;3.05;2.47;;;;;;;20.58;38.59;100437.30;1890452;74;28164;-68
2021/12/13 09:24:03;;;;;;;4.17;2.50;;;;;;;20.55;38.60;100442.64;1885975;74;28194;-76
2021/12/13 09:26:52;;;;;;;4.37;2.80;;;;;;;20.54;38.53;100437.35;1901389;74;28601;-68
2021/12/13 09:29:50;;;;;;;3.52;2.87;;;;;;;20.52;38.61;100433.98;1895450;74;28034;-68
2021/12/13 09:32:42;;;;;;;3.07;2.70;;;;;;;20.52;38.72;100435.35;1904606;74;28120;-68
2021/12/13 09:35:39;;;;;;;3.55;2.72;;;;;;;20.50;38.85;100431.47;1893918;74;28122;-69
2021/12/13 09:38:48;;;;;;;4.45;2.90;;;;;;;20.50;38.91;100434.70;1904432;74;28040;-67
2021/12/13 09:41:53;;;;;;;4.05;2.90;;;;;;;20.48;38.92;100429.46;1896531;74;27983;-68
2021/12/13 09:45:07;;;;;;;4.40;2.92;;;;;;;20.48;39.02;100427.24;1901903;74;28175;-68
2021/12/13 09:47:50;;;;;;;6.28;2.77;;;;;;;20.47;39.04;100425.54;1900370;74;28064;-67
2021/12/13 09:50:38;;;;;;;3.87;2.90;;;;;;;20.46;39.08;100418.42;1896222;74;28064;-67
2021/12/13 09:53:31;;;;;;;5.20;2.70;;;;;;;20.46;39.11;100418.42;1896911;74;28038;-68
2021/12/13 09:56:23;;;;;;;5.42;3.30;;;;;;;20.46;39.15;100415.17;1884737;75;28223;-66
2021/12/13 09:59:18;;;;;;;3.90;2.73;;;;;;;20.47;39.17;100410.02;1892575;74;28184;-67
2021/12/13 10:02:09;;;;;;;5.65;3.02;;;;;;;20.46;39.20;100404.25;1906511;74;30172;-68
2021/12/13 10:05:19;;;;;;;5.12;3.08;;;;;;;20.47;39.17;100409.17;1894425;74;33549;-70
2021/12/13 10:08:11;;;;;;;4.35;3.10;;;;;;;20.43;39.20;100407.38;1905525;74;28296;-70
2021/12/13 10:11:05;;;;;;;4.20;2.77;;;;;;;20.43;39.20;100400.55;1906384;74;28064;-70
2021/12/13 10:13:54;;;;;;;2.90;2.60;;;;;;;20.43;39.26;100401.91;1902106;74;28145;-69
2021/12/13 10:16:46;;;;;;;6.10;3.02;;;;;;;20.43;39.23;100395.61;1867068;75;28327;-68
2021/12/13 10:19:43;;;;;;;4.40;2.60;;;;;;;20.44;39.21;100389.13;1901263;75;28141;-68
2021/12/13 10:22:33;;;;;;;5.28;2.60;;;;;;;20.43;39.20;100388.27;1871571;75;28164;-66
2021/12/13 10:25:31;;;;;;;3.98;2.80;;;;;;;20.42;39.22;100384.39;1871680;75;28266;-67
2021/12/13 10:28:25;;;;;;;4.70;2.93;;;;;;;20.41;39.14;100386.27;1901697;75;28091;-70
2021/12/13 10:31:18;;;;;;;5.42;2.70;;;;;;;20.37;39.11;100379.53;1885045;75;28058;-67
2021/12/13 10:34:09;;;;;;;4.95;2.85;;;;;;;20.40;39.01;100378.25;1877868;75;28059;-68
2021/12/13 10:37:03;;;;;;;4.35;2.60;;;;;;;20.37;38.90;100378.67;1876722;75;28175;-68
2021/12/13 10:39:54;;;;;;;3.33;2.53;;;;;;;20.37;38.85;100373.22;1890828;75;28067;-68
2021/12/13 10:42:52;;;;;;;3.87;2.70;;;;;;;20.36;38.79;100370.16;1869445;75;28169;-68
2021/12/13 10:45:43;;;;;;;3.70;2.90;;;;;;;20.34;38.76;100370.36;1882750;75;28059;-69
2021/12/13 10:48:34;;;;;;;4.62;2.70;;;;;;;20.32;38.80;100371.09;1863450;75;28235;-69
2021/12/13 10:51:28;;;;;;;4.40;3.00;;;;;;;20.32;38.84;100371.09;1893815;75;28054;-69
2021/12/13 10:54:19;;;;;;;3.77;3.00;;;;;;;20.34;38.88;100365.42;1901711;75;28125;-71
2021/12/13 10:57:10;;;;;;;4.10;2.42;;;;;;;20.31;38.96;100358.98;1875430;75;28184;-68
2021/12/13 11:00:00;;;;;;;5.17;2.65;;;;;;;20.32;38.92;100353.87;1878708;75;28204;-69
2021/12/13 11:02:55;;;;;;;4.97;2.83;;;;;;;20.33;38.85;100345.98;1886231;75;28176;-68
2021/12/13 11:05:45;;;;;;;5.00;2.77;;;;;;;20.33;38.75;100346.84;1881956;75;28170;-68
2021/12/13 11:08:41;;;;;;;3.40;2.67;;;;;;;20.32;38.76;100341.08;1889656;75;28215;-68
2021/12/13 11:11:27;;;;;;;4.00;2.57;;;;;;;20.33;38.73;100334.56;1879829;75;28170;-68
2021/12/13 11:14:20;;;;;;;3.77;2.80;;;;;;;20.32;38.68;100334.77;1876504;75;28186;-69
2021/12/13 11:17:11;;;;;;;2.90;2.60;;;;;;;20.30;38.70;100332.25;1872304;76;28222;-69
2021/12/13 11:20:09;;;;;;;4.60;2.77;;;;;;;20.29;38.71;100331.06;1908775;74;28097;-69
2021/12/13 11:22:57;;;;;;;4.83;2.83;;;;;;;20.25;38.73;100326.55;1904677;74;28162;-69
2021/12/13 11:25:52;;;;;;;4.35;2.70;;;;;;;20.25;38.70;100329.78;1899003;74;28133;-69
2021/12/13 11:28:40;;;;;;;6.17;2.70;;;;;;;20.25;38.64;100332.00;1895813;74;28286;-70
2021/12/13 11:31:37;;;;;;;5.08;3.12;;;;;;;20.25;38.62;100322.97;1895182;74;28171;-69
2021/12/13 11:34:45;;;;;;;4.30;2.90;;;;;;;20.25;38.58;100323.81;1893736;74;30195;-69
2021/12/13 11:38:05;;;;;;;5.25;3.20;;;;;;;20.24;38.56;100323.48;1900232;74;28071;-69
2021/12/13 11:41:02;;;;;;;6.17;3.62;;;;;;;20.21;38.59;100318.37;1887841;74;28660;-68
2021/12/13 11:44:24;;;;;;;5.28;3.52;;;;;;;20.17;38.59;100311.64;1885069;74;28170;-69
2021/12/13 11:47:33;;;;;;;5.03;3.05;;;;;;;20.17;38.65;100303.97;1903965;74;38360;-67
2021/12/13 11:50:56;;;;;;;5.40;3.13;;;;;;;20.15;38.76;100304.70;1897687;73;28185;-68
2021/12/13 11:53:50;;;;;;;4.12;3.15;;;;;;;20.18;38.93;100298.86;1853557;76;28333;-68
2021/12/13 11:57:15;;;;;;;6.90;2.87;;;;;;;20.15;39.00;100294.64;1909693;74;28143;-69
2021/12/13 12:00:23;;;;;;;7.97;3.42;;;;;;;20.18;38.98;100287.95;1908988;74;31957;-66
2021/12/13 12:03:34;;;;;;;6.75;3.10;;;;;;;20.17;39.04;100286.24;1900212;74;28011;-67
2021/12/13 12:07:07;;;;;;;6.28;3.00;;;;;;;20.17;39.14;100284.87;1900247;74;28204;-68
2021/12/13 12:10:20;;;;;;;5.90;2.87;;;;;;;20.18;39.15;100280.61;1900512;74;28236;-67
2021/12/13 12:13:28;;;;;;;5.28;3.47;;;;;;;20.17;39.10;100272.61;1904262;74;28056;-66
2021/12/13 12:16:14;;;;;;;6.10;2.92;;;;;;;20.15;39.05;100263.78;1886885;74;28236;-67
2021/12/13 12:19:04;;;;;;;5.40;3.10;;;;;;;20.15;39.11;100266.00;1875596;75;28077;-67
2021/12/13 12:22:02;;;;;;;6.20;3.00;;;;;;;20.19;39.00;100255.00;1881852;75;27999;-68
2021/12/13 12:24:56;;;;;;;4.53;3.10;;;;;;;20.16;38.98;100252.70;1870773;75;28140;-68
2021/12/13 12:27:45;;;;;;;5.62;2.70;;;;;;;20.20;39.12;100255.84;1871929;75;28169;-70
2021/12/13 12:30:38;;;;;;;5.62;3.00;;;;;;;20.24;39.08;100251.70;1880041;75;28121;-69
2021/12/13 12:33:35;;;;;;;4.20;2.90;;;;;;;20.26;39.07;100253.70;1869228;75;28191;-67
2021/12/13 12:36:27;;;;;;;5.53;2.60;;;;;;;20.24;39.07;100250.34;1879939;75;28095;-67
2021/12/13 12:39:44;;;;;;;7.70;2.90;;;;;;;20.25;39.02;100242.48;1883722;75;28125;-67
2021/12/13 12:42:35;;;;;;;5.25;2.75;;;;;;;20.24;38.95;100238.91;1880852;75;28106;-67
2021/12/13 12:45:38;;;;;;;5.15;3.40;;;;;;;20.21;39.01;100230.27;1878143;75;28064;-68
2021/12/13 12:48:35;;;;;;;6.17;3.35;;;;;;;20.07;38.79;100232.05;1859735;74;28046;-68
2021/12/13 12:51:26;;;;;;;6.55;3.50;;;;;;;20.14;38.91;100230.75;1874194;75;31894;-67
2021/12/13 12:54:21;;;;;;;7.47;3.10;;;;;;;20.15;38.93;100224.23;1875554;75;28178;-68
2021/12/13 12:57:10;;;;;;;7.33;3.15;;;;;;;20.18;38.94;100226.05;1885594;75;28054;-67
2021/12/13 12:59:58;;;;;;;5.65;2.90;;;;;;;20.22;38.96;100221.06;1880452;75;28116;-67
2021/12/13 13:02:50;;;;;;;5.80;2.90;;;;;;;20.25;38.96;100213.84;1857488;77;28652;-67
2021/12/13 13:05:39;;;;;;;5.65;2.67;;;;;;;20.25;38.94;100203.78;1877431;75;28063;-67
2021/12/13 13:08:34;;;;;;;4.83;2.85;;;;;;;20.26;39.01;100194.53;1888108;75;28160;-66
2021/12/13 13:11:29;;;;;;;3.70;2.90;;;;;;;20.29;39.00;100194.66;1874878;75;28074;-69
2021/12/13 13:14:22;;;;;;;3.87;3.00;;;;;;;20.28;38.91;100191.62;1870045;75;28114;-66
2021/12/13 13:17:13;;;;;;;5.33;3.10;;;;;;;20.27;38.88;100192.14;1875916;75;28163;-68
2021/12/13 13:20:11;;;;;;;3.10;2.65;;;;;;;20.26;38.83;100187.71;1915847;74;28129;-67
2021/12/13 13:23:01;;;;;;;5.75;2.83;;;;;;;20.27;38.81;100191.30;1895152;74;28179;-65
2021/12/13 13:25:59;;;;;;;3.90;2.70;;;;;;;20.26;38.77;100185.50;1885419;74;28187;-66
2021/12/13 13:28:54;;;;;;;3.85;2.85;;;;;;;20.26;38.79;100185.50;1902655;74;28079;-67
2021/12/13 13:31:53;;;;;;;6.03;2.85;;;;;;;20.24;38.80;100178.89;1908248;74;28189;-66
2021/12/13 13:34:48;;;;;;;4.85;2.98;;;;;;;20.26;38.81;100182.26;1902605;74;28215;-65
2021/12/13 13:37:41;;;;;;;4.90;3.08;;;;;;;20.28;38.94;100182.89;1909500;74;28207;-66
2021/12/13 13:40:32;;;;;;;3.80;2.70;;;;;;;20.31;38.94;100181.13;1884897;74;28172;-65
2021/12/13 13:43:22;;;;;;;3.70;2.75;;;;;;;20.31;38.93;100183.02;1917632;74;28116;-67
2021/12/13 13:46:11;;;;;;;4.00;2.72;;;;;;;20.33;38.93;100178.19;1906535;74;28087;-67
2021/12/13 13:49:02;;;;;;;3.40;2.62;;;;;;;20.35;38.95;100179.67;1906613;74;28217;-68
2021/12/13 13:51:51;;;;;;;5.35;2.62;;;;;;;20.35;38.97;100171.48;1884729;74;28178;-68
2021/12/13 13:54:39;;;;;;;3.92;2.65;;;;;;;20.38;38.94;100172.97;1901381;74;28168;-68
2021/12/13 13:57:31;;;;;;;4.53;2.98;;;;;;;20.37;38.94;100167.21;1884750;74;28234;-68
2021/12/13 14:00:19;;;;;;;3.55;2.72;;;;;;;20.39;38.89;100167.84;1890163;74;28051;-68
2021/12/13 14:03:10;;;;;;;3.25;2.70;;;;;;;20.37;38.93;100168.06;1895282;74;28201;-69
2021/12/13 14:05:59;;;;;;;4.50;2.80;;;;;;;20.38;38.96;100168.36;1901148;74;28039;-68
2021/12/13 14:09:07;;;;;;;4.55;2.90;;;;;;;20.38;38.90;100167.00;1906389;74;28629;-67
2021/12/13 14:12:01;;;;;;;5.72;2.75;;;;;;;20.39;38.89;100164.59;1893650;74;28008;-67
2021/12/13 14:14:55;;;;;;;5.25;2.80;;;;;;;20.39;38.92;100167.84;1895399;74;28174;-67
2021/12/13 14:17:49;;;;;;;2.87;2.58;;;;;;;20.38;38.92;100165.63;1906437;74;28067;-69
2021/12/13 14:20:40;;;;;;;4.23;2.80;;;;;;;20.39;38.87;100170.06;1884611;75;28269;-66
2021/12/13 14:23:35;;;;;;;3.50;2.60;;;;;;;20.38;38.89;100177.91;1896624;74;28166;-66
2021/12/13 14:26:30;;;;;;;4.20;2.58;;;;;;;20.36;38.93;100178.64;1909286;74;28219;-66
2021/12/13 14:29:18;;;;;;;4.22;2.60;;;;;;;20.43;38.94;100182.75;1913555;74;28064;-66
2021/12/13 14:32:10;;;;;;;2.87;2.40;;;;;;;20.51;38.85;100187.50;1897251;74;28640;-67
2021/12/13 14:35:00;;;;;;;3.92;2.72;;;;;;;20.62;38.75;100187.45;1899283;74;28035;-65
2021/12/13 14:37:50;;;;;;;4.17;2.65;;;;;;;20.68;38.61;100191.27;1908523;74;31105;-65
2021/12/13 14:40:53;;;;;;;3.27;2.50;;;;;;;20.76;38.50;100195.16;1906375;74;28040;-65
2021/12/13 14:43:47;;;;;;;3.40;2.40;;;;;;;20.79;38.41;100191.50;1885901;74;36368;-65
2021/12/13 14:46:41;;;;;;;2.77;2.37;;;;;;;20.86;38.29;100198.34;1901303;74;28292;-65
2021/12/13 14:49:32;;;;;;;5.45;2.75;;;;;;;20.89;38.19;100198.76;1884654;75;28160;-64
2021/12/13 14:52:24;;;;;;;3.30;2.47;;;;;;;20.94;38.09;100190.80;1906792;74;28687;-65
2021/12/13 14:55:16;;;;;;;3.55;2.40;;;;;;;21.00;37.97;100194.59;1906954;74;28050;-65
2021/12/13 14:58:10;;;;;;;3.90;2.67;;;;;;;21.04;37.91;100203.56;1902925;74;28152;-64
2021/12/13 15:01:02;;;;;;;4.37;2.90;;;;;;;21.08;37.83;100201.25;1898702;74;28054;-65
2021/12/13 15:03:53;;;;;;;2.70;2.25;;;;;;;21.12;37.69;100208.00;1908703;74;28146;-64
2021/12/13 15:06:44;;;;;;;2.65;2.30;;;;;;;21.14;37.60;100209.45;1909975;74;28101;-64
2021/12/13 15:09:41;;;;;;;4.62;2.90;;;;;;;21.16;37.52;100209.26;1917478;74;28089;-65
2021/12/13 15:12:39;;;;;;;3.20;2.50;;;;;;;21.21;37.48;100214.95;1901393;74;28226;-65
2021/12/13 15:15:31;;;;;;;4.60;2.60;;;;;;;21.21;37.39;100208.93;1896255;74;28136;-65
2021/12/13 15:18:16;;;;;;;3.47;2.45;;;;;;;21.22;37.36;100219.34;1917237;74;28492;-65
2021/12/13 15:21:09;;;;;;;4.08;2.60;;;;;;;21.26;37.28;100219.27;1895627;74;28187;-65
2021/12/13 15:24:00;;;;;;;3.73;2.53;;;;;;;21.29;37.24;100219.67;1899798;74;28172;-65
2021/12/13 15:26:52;;;;;;;3.93;2.70;;;;;;;21.30;37.15;100216.42;1897180;74;28059;-65
2021/12/13 15:29:42;;;;;;;2.77;2.35;;;;;;;21.32;37.08;100223.88;1917199;74;28108;-65
2021/12/13 15:32:31;;;;;;;3.35;2.58;;;;;;;21.33;37.10;100225.03;1893475;74;28260;-66
2021/12/13 15:35:25;;;;;;;4.78;2.62;;;;;;;21.37;36.98;100230.09;1902090;74;28047;-65
2021/12/13 15:38:18;;;;;;;4.37;2.75;;;;;;;21.40;37.01;100229.12;1897825;74;28089;-66
2021/12/13 15:41:10;;;;;;;4.75;2.45;;;;;;;21.39;36.91;100226.62;1917502;74;28093;-66
2021/12/13 15:44:00;;;;;;;6.30;3.15;;;;;;;21.44;37.04;100231.78;1892695;74;28117;-68
2021/12/13 15:46:51;;;;;;;4.85;3.00;;;;;;;21.49;37.03;100235.26;1884659;74;28144;-66
2021/12/13 15:49:40;;;;;;;6.85;3.37;;;;;;;21.52;37.08;100238.40;1900301;74;28057;-66
2021/12/13 15:52:29;;;;;;;4.22;2.40;;;;;;;21.55;37.11;100240.72;1886644;74;28210;-66
2021/12/13 15:55:20;;;;;;;3.95;2.60;;;;;;;21.57;37.10;100244.08;1906913;74;28090;-66
2021/12/13 15:58:17;;;;;;;3.42;2.40;;;;;;;21.59;37.10;100239.23;1903822;74;28101;-67
2021/12/13 16:01:11;;;;;;;3.30;2.52;;;;;;;21.62;37.06;100244.30;1890404;74;28134;-67
2021/12/13 16:04:02;;;;;;;2.63;2.30;;;;;;;21.63;36.97;100247.36;1907181;74;28127;-66
2021/12/13 16:06:52;;;;;;;3.35;2.40;;;;;;;21.65;36.97;100253.45;1906579;74;28155;-65
2021/12/13 16:09:47;;;;;;;4.95;2.52;;;;;;;21.66;36.94;100257.01;1900717;74;28130;-66
2021/12/13 16:12:37;;;;;;;3.15;2.70;;;;;;;21.70;36.92;100249.57;1900827;74;28177;-66
2021/12/13 16:15:28;;;;;;;4.28;2.70;;;;;;;21.73;36.86;100252.38;1895943;74;28066;-66
2021/12/13 16:18:17;;;;;;;3.25;2.50;;;;;;;21.74;36.78;100253.56;1894388;74;28416;-65
2021/12/13 16:21:05;;;;;;;4.03;2.65;;;;;;;21.78;36.73;100260.80;1898973;74;29980;-68
2021/12/13 16:24:02;;;;;;;3.07;2.50;;;;;;;21.78;36.59;100261.65;1869289;76;28139;-68
2021/12/13 16:26:54;;;;;;;3.10;2.40;;;;;;;21.75;36.61;100264.80;1881037;75;28047;-67
2021/12/13 16:29:42;;;;;;;2.55;2.27;;;;;;;21.72;36.65;100259.77;1895017;75;31113;-67
2021/12/13 16:32:32;;;;;;;2.60;2.40;;;;;;;21.74;36.60;100268.59;1890980;75;28103;-68
2021/12/13 16:35:22;;;;;;;3.08;2.42;;;;;;;21.75;36.58;100273.00;1886157;75;28061;-69
2021/12/13 16:38:11;;;;;;;3.53;2.70;;;;;;;21.76;36.57;100276.06;1889709;75;28125;-66
2021/12/13 16:41:06;;;;;;;3.27;2.20;;;;;;;21.76;36.59;100277.95;1897108;75;28023;-66
2021/12/13 16:43:58;;;;;;;3.37;2.67;;;;;;;21.80;36.53;100285.52;1878321;75;28157;-65
2021/12/13 16:46:49;;;;;;;3.42;2.50;;;;;;;21.83;36.44;100285.11;1869318;76;28194;-66
2021/12/13 16:49:42;;;;;;;2.80;2.40;;;;;;;21.86;36.37;100287.47;1883031;75;28367;-66
2021/12/13 16:52:31;;;;;;;3.40;2.40;;;;;;;21.90;36.36;100287.35;1892742;75;28153;-67
2021/12/13 16:55:20;;;;;;;3.00;2.70;;;;;;;21.90;36.27;100287.35;1891272;75;28044;-66
2021/12/13 16:58:10;;;;;;;3.08;2.45;;;;;;;21.88;36.29;100284.51;1870474;75;28164;-66
2021/12/13 17:01:01;;;;;;;3.67;2.67;;;;;;;21.93;36.27;100289.67;1883347;75;28096;-66
2021/12/13 17:03:50;;;;;;;3.25;2.60;;;;;;;21.93;36.20;100287.45;1889610;75;28064;-66
2021/12/13 17:06:48;;;;;;;2.80;2.47;;;;;;;21.93;36.13;100292.41;1876994;75;28208;-66
2021/12/13 17:10:09;;;;;;;3.90;2.73;;;;;;;22.00;36.11;100294.62;1889753;75;28044;-66
2021/12/13 17:13:08;;;;;;;3.95;2.80;;;;;;;22.00;36.14;100299.23;1891221;75;32036;-65
2021/12/13 17:16:00;;;;;;;3.37;2.83;;;;;;;21.99;36.08;100301.13;1882642;75;28117;-65
2021/12/13 17:18:51;;;;;;;2.65;2.45;;;;;;;22.02;36.01;100302.59;1869060;76;28246;-66
2021/12/13 17:21:51;;;;;;;2.75;2.42;;;;;;;22.02;36.00;100310.81;1904509;74;28109;-65
2021/12/13 17:24:48;;;;;;;2.95;2.50;;;;;;;22.03;35.94;100310.59;1890436;74;28581;-65
2021/12/13 17:27:37;;;;;;;3.70;2.83;;;;;;;22.02;35.94;100317.65;1906551;74;28073;-68
2021/12/13 17:30:28;;;;;;;4.05;2.60;;;;;;;22.02;35.94;100317.65;1902640;74;28092;-66
2021/12/13 17:33:18;;;;;;;3.58;2.52;;;;;;;22.06;35.84;100313.43;1897683;74;38400;-66
2021/12/13 17:36:08;;;;;;;2.65;2.45;;;;;;;22.05;35.82;100321.86;1911064;74;28671;-66
2021/12/13 17:38:59;;;;;;;4.22;2.50;;;;;;;22.09;35.74;100329.95;1906495;74;28090;-67
2021/12/13 17:41:57;;;;;;;3.42;2.40;;;;;;;22.10;35.72;100331.09;1902426;74;28117;-68
2021/12/13 17:44:48;;;;;;;3.22;2.50;;;;;;;22.10;35.75;100324.81;1898696;74;28040;-68
2021/12/13 17:47:37;;;;;;;3.60;2.60;;;;;;;22.11;35.64;100329.20;1909383;74;28123;-67
2021/12/13 17:50:29;;;;;;;3.20;2.55;;;;;;;22.12;35.65;100331.75;1887611;74;28124;-66
2021/12/13 17:53:24;;;;;;;3.05;2.50;;;;;;;22.14;35.58;100328.80;1897746;74;28271;-66
2021/12/13 17:56:16;;;;;;;3.58;2.70;;;;;;;22.15;35.58;100330.49;1881011;75;28138;-67
2021/12/13 17:59:10;;;;;;;3.50;2.47;;;;;;;22.16;35.53;100339.00;1906920;74;32071;-67
2021/12/13 18:02:04;;;;;;;2.37;2.17;;;;;;;22.16;35.51;100335.74;1906561;74;28156;-66
2021/12/13 18:05:07;;;;;;;2.90;2.60;;;;;;;22.17;35.48;100337.41;1885601;74;28176;-66
2021/12/13 18:07:49;;;;;;;3.52;2.70;;;;;;;22.18;35.47;100342.36;1899086;74;28122;-66
2021/12/13 18:10:40;;;;;;;4.33;2.70;;;;;;;22.20;35.44;100337.52;1897804;74;28194;-66
2021/12/13 18:13:29;;;;;;;2.50;2.30;;;;;;;22.21;35.40;100339.21;1895667;74;28223;-66
2021/12/13 18:16:19;;;;;;;2.67;2.47;;;;;;;22.23;35.33;100346.68;1895605;74;28152;-65
2021/12/13 18:19:09;;;;;;;2.77;2.37;;;;;;;22.24;35.29;100349.74;1917622;74;28129;-67
2021/12/13 18:21:58;;;;;;;2.60;2.40;;;;;;;22.21;35.31;100355.63;1898128;74;28042;-67
2021/12/13 18:24:46;;;;;;;3.02;2.50;;;;;;;22.22;35.34;100354.05;1895527;74;28074;-66
2021/12/13 18:27:44;;;;;;;2.90;2.60;;;;;;;22.25;35.23;100352.78;1893505;74;28128;-66
2021/12/13 18:30:42;;;;;;;3.65;2.60;;;;;;;22.26;35.24;100358.58;1904324;74;28035;-67
2021/12/13 18:33:33;;;;;;;3.17;2.58;;;;;;;22.27;35.22;100359.73;1889501;74;28050;-67
2021/12/13 18:36:31;;;;;;;12.73;9.43;;;;;;;22.24;35.24;100365.61;1906378;74;28201;-66
2021/12/13 18:39:25;;;;;;;4.17;3.70;;;;;;;21.51;32.31;100357.52;1914046;74;28671;-66
2021/12/13 18:42:36;;;;;;;4.40;3.83;;;;;;;21.60;33.83;100361.23;1914922;74;28105;-66
2021/12/13 18:45:26;;;;;;;3.73;3.37;;;;;;;21.65;34.14;100357.36;1885637;74;28340;-66
2021/12/13 18:48:27;;;;;;;5.78;3.40;;;;;;;21.73;34.38;100362.61;1901112;74;28041;-66
2021/12/13 18:51:12;;;;;;;3.90;3.30;;;;;;;21.77;34.42;100363.91;1896622;74;28092;-68
2021/12/13 18:54:02;;;;;;;4.15;3.10;;;;;;;21.80;34.57;100358.52;1895689;74;28049;-65
2021/12/13 18:56:52;;;;;;;3.10;2.90;;;;;;;21.83;34.58;100356.22;1911883;74;28113;-68
2021/12/13 18:59:40;;;;;;;4.25;3.35;;;;;;;21.92;34.67;100357.73;1898998;74;28178;-68
2021/12/13 19:02:38;;;;;;;3.37;2.87;;;;;;;21.96;34.65;100363.09;1897782;74;29991;-68
2021/12/13 19:05:30;;;;;;;5.50;3.10;;;;;;;21.94;34.65;100357.51;1895756;74;28162;-67
2021/12/13 19:08:30;;;;;;;4.20;3.10;;;;;;;21.94;34.77;100358.36;1895527;74;28197;-68
2021/12/13 19:11:28;;;;;;;10.38;2.90;;;;;;;21.96;34.78;100362.27;1894777;74;28144;-67
2021/12/13 19:14:23;;;;;;;3.67;2.90;;;;;;;22.01;34.81;100363.30;1903721;74;28068;-68
2021/12/13 19:17:14;;;;;;;3.15;2.85;;;;;;;22.05;34.78;100362.90;1899284;74;31023;-68
2021/12/13 19:20:08;;;;;;;4.50;3.00;;;;;;;22.03;34.79;100367.22;1895590;74;28106;-69
2021/12/13 19:22:56;;;;;;;3.80;3.10;;;;;;;22.06;34.80;100361.83;1895521;74;28113;-68
2021/12/13 19:25:51;;;;;;;4.78;3.15;;;;;;;22.09;34.80;100370.47;1895865;74;28245;-69
2021/12/13 19:28:51;;;;;;;3.52;2.87;;;;;;;22.12;34.80;100370.06;1913211;74;28015;-68
2021/12/13 19:31:46;;;;;;;4.55;3.10;;;;;;;22.18;34.74;100373.83;1898507;74;28179;-67
2021/12/13 19:34:37;;;;;;;3.75;3.25;;;;;;;22.18;34.76;100372.46;1907852;74;28219;-68
2021/12/13 19:37:41;;;;;;;4.80;3.07;;;;;;;22.17;34.73;100374.35;1906817;74;28059;-68
2021/12/13 19:40:37;;;;;;;4.30;3.00;;;;;;;22.19;34.80;100379.11;1907001;74;28081;-68
2021/12/13 19:43:28;;;;;;;3.12;2.87;;;;;;;22.20;34.77;100379.94;1904031;74;28062;-68
2021/12/13 19:46:28;;;;;;;3.58;3.00;;;;;;;22.22;34.77;100379.22;1897084;74;28049;-68
2021/12/13 19:49:20;;;;;;;3.67;2.87;;;;;;;22.23;34.71;100377.63;1895452;74;28583;-68
2021/12/13 19:52:25;;;;;;;3.47;2.90;;;;;;;22.28;34.77;100381.10;1895426;74;28137;-68
2021/12/13 19:55:22;;;;;;;3.15;2.80;;;;;;;22.31;34.71;100380.69;1894968;74;28251;-68
2021/12/13 19:58:14;;;;;;;3.40;2.98;;;;;;;22.32;34.69;100383.20;1897630;74;28134;-68
2021/12/13 20:01:06;;;;;;;3.22;2.87;;;;;;;22.34;34.61;100384.35;1899393;74;28172;-68
2021/12/13 20:03:57;;;;;;;3.92;3.00;;;;;;;22.34;34.63;100384.35;1895372;74;28046;-68
2021/12/13 20:06:49;;;;;;;5.08;3.02;;;;;;;22.32;34.69;100379.62;1890816;74;28183;-69
2021/12/13 20:09:40;;;;;;;3.92;2.90;;;;;;;22.30;34.63;100373.00;1905916;74;28084;-69
2021/12/13 20:12:32;;;;;;;3.52;3.10;;;;;;;22.37;34.64;100373.84;1900314;74;28098;-68
2021/12/13 20:15:29;;;;;;;4.30;2.95;;;;;;;22.39;34.56;100378.57;1906540;74;28198;-68
2021/12/13 20:18:21;;;;;;;3.10;2.70;;;;;;;22.44;34.55;100369.72;1906405;74;28207;-68
2021/12/13 20:21:18;;;;;;;3.33;3.03;;;;;;;22.38;34.61;100370.03;1907048;74;28023;-68
2021/12/13 20:24:09;;;;;;;3.10;2.80;;;;;;;22.43;34.57;100368.02;1900550;74;28142;-68
2021/12/13 20:27:13;;;;;;;3.42;2.90;;;;;;;22.41;34.62;100371.50;1871240;75;28199;-68
2021/12/13 20:30:07;;;;;;;3.95;3.10;;;;;;;22.45;34.57;100367.31;1901613;75;28093;-69
2021/12/13 20:33:01;;;;;;;3.70;3.08;;;;;;;22.44;34.58;100374.67;1879830;75;28055;-69
2021/12/13 20:36:03;;;;;;;3.30;3.00;;;;;;;22.44;34.57;100374.67;1876610;75;28198;-68
2021/12/13 20:38:54;;;;;;;3.30;3.00;;;;;;;22.44;34.58;100372.45;1891062;75;28042;-68
2021/12/13 20:41:50;;;;;;;3.23;2.93;;;;;;;22.46;34.52;100371.71;1873693;75;28510;-69